createdAt,value
2023-03-12T00:01:17.968Z,6.70
2023-03-12T00:03:47.557Z,11.00
2023-03-12T00:06:16.605Z,6.00
2023-03-12T00:08:45.024Z,7.10
2023-03-12T00:11:16.067Z,6.30
2023-03-12T00:13:44.746Z,7.80
2023-03-12T00:16:15.684Z,6.60
2023-03-12T00:18:44.489Z,7.60
2023-03-12T00:21:12.635Z,5.90
2023-03-12T00:23:41.227Z,4.50
2023-03-12T00:26:12.931Z,5.30
2023-03-12T00:28:41.182Z,5.30
2023-03-12T00:31:19.920Z,5.40
2023-03-12T00:33:51.363Z,4.50
2023-03-12T00:36:24.970Z,7.70
2023-03-12T00:38:54.755Z,6.90
2023-03-12T00:41:24.429Z,6.70
2023-03-12T00:43:53.047Z,6.90
2023-03-12T00:46:22.214Z,4.90
2023-03-12T00:48:50.818Z,4.70
2023-03-12T00:51:19.206Z,3.90
2023-03-12T00:53:47.414Z,4.10
2023-03-12T00:56:15.770Z,5.40
2023-03-12T00:58:43.922Z,6.20
2023-03-12T01:01:12.568Z,7.50
2023-03-12T01:03:41.093Z,3.70
2023-03-12T01:06:09.569Z,4.60
2023-03-12T01:08:38.029Z,5.70
2023-03-12T01:11:06.124Z,6.10
2023-03-12T01:13:34.363Z,1.80
2023-03-12T01:16:02.802Z,4.00
2023-03-12T01:18:30.904Z,2.10
2023-03-12T01:20:59.504Z,3.90
2023-03-12T01:23:28.276Z,2.80
2023-03-12T01:25:56.574Z,2.10
2023-03-12T01:28:25.931Z,2.90
2023-03-12T01:30:54.098Z,6.70
2023-03-12T01:33:23.057Z,1.70
2023-03-12T01:35:51.624Z,2.80
2023-03-12T01:38:20.958Z,7.10
2023-03-12T01:40:49.049Z,4.70
2023-03-12T01:43:35.523Z,7.90
2023-03-12T01:46:16.263Z,2.30
2023-03-12T01:48:48.488Z,3.90
2023-03-12T01:51:19.133Z,2.70
2023-03-12T01:53:51.506Z,2.80
2023-03-12T01:56:21.745Z,3.30
2023-03-12T01:58:55.038Z,3.50
2023-03-12T02:03:55.849Z,3.50
2023-03-12T02:08:59.821Z,2.10
2023-03-12T02:11:27.972Z,7.90
2023-03-12T02:13:56.746Z,6.70
2023-03-12T02:16:26.160Z,8.80
2023-03-12T02:18:57.096Z,5.70
2023-03-12T02:21:30.997Z,4.50
2023-03-12T02:24:14.978Z,5.70
2023-03-12T02:26:43.229Z,4.30
2023-03-12T02:29:12.602Z,7.70
2023-03-12T02:31:45.587Z,7.30
2023-03-12T02:34:14.612Z,6.00
2023-03-12T02:36:42.777Z,10.10
2023-03-12T02:39:12.727Z,3.30
2023-03-12T02:41:53.955Z,7.80
2023-03-12T02:44:25.672Z,3.30
2023-03-12T02:46:56.079Z,6.40
2023-03-12T02:49:28.464Z,6.00
2023-03-12T02:51:57.278Z,3.00
2023-03-12T02:54:25.718Z,5.70
2023-03-12T02:56:54.273Z,5.70
2023-03-12T02:59:26.679Z,8.30
2023-03-12T03:01:58.472Z,4.70
2023-03-12T03:04:29.146Z,6.20
2023-03-12T03:06:57.906Z,4.70
2023-03-12T03:09:26.123Z,9.40
2023-03-12T03:11:54.292Z,6.60
2023-03-12T03:14:23.502Z,6.00
2023-03-12T03:16:51.814Z,7.60
2023-03-12T03:19:21.649Z,8.70
2023-03-12T03:21:49.715Z,6.60
2023-03-12T03:24:18.351Z,5.20
2023-03-12T03:26:46.500Z,5.60
2023-03-12T03:29:14.970Z,6.50
2023-03-12T03:31:43.213Z,6.00
2023-03-12T03:34:11.302Z,5.60
2023-03-12T03:36:39.371Z,9.10
2023-03-12T03:41:40.059Z,5.40
2023-03-12T03:44:08.710Z,6.40
2023-03-12T03:46:37.568Z,4.80
2023-03-12T03:49:07.700Z,6.60
2023-03-12T03:51:36.693Z,4.90
2023-03-12T03:54:10.834Z,7.70
2023-03-12T03:56:41.181Z,5.00
2023-03-12T03:59:10.160Z,8.90
2023-03-12T04:01:39.755Z,9.30
2023-03-12T04:04:08.186Z,6.20
2023-03-12T04:06:36.411Z,6.50
2023-03-12T04:09:04.959Z,3.90
2023-03-12T04:11:33.683Z,5.50
2023-03-12T04:14:01.992Z,5.10
2023-03-12T04:16:32.375Z,5.20
2023-03-12T04:19:00.521Z,5.90
2023-03-12T04:21:28.737Z,7.80
2023-03-12T04:23:57.143Z,6.50
2023-03-12T04:26:28.960Z,4.40
2023-03-12T04:28:57.654Z,6.30
2023-03-12T04:31:25.835Z,6.90
2023-03-12T04:33:54.032Z,9.50
2023-03-12T04:36:24.021Z,7.00
2023-03-12T04:38:52.681Z,8.70
2023-03-12T04:41:24.874Z,8.50
2023-03-12T04:43:57.389Z,5.60
2023-03-12T04:46:26.070Z,7.10
2023-03-12T04:48:54.235Z,5.10
2023-03-12T04:51:22.396Z,5.40
2023-03-12T04:53:51.635Z,11.90
2023-03-12T04:56:19.795Z,8.50
2023-03-12T04:58:48.408Z,3.40
2023-03-12T05:01:21.983Z,6.10
2023-03-12T05:03:50.422Z,5.80
2023-03-12T05:06:19.055Z,8.10
2023-03-12T05:08:48.688Z,6.30
2023-03-12T05:11:18.124Z,5.00
2023-03-12T05:13:46.285Z,4.70
2023-03-12T05:16:16.477Z,4.70
2023-03-12T05:18:45.109Z,4.80
2023-03-12T05:21:19.612Z,2.40
2023-03-12T05:23:49.076Z,6.00
2023-03-12T05:26:21.366Z,3.20
2023-03-12T05:28:50.272Z,4.60
2023-03-12T05:31:19.105Z,5.50
2023-03-12T05:33:47.741Z,5.40
2023-03-12T05:36:16.593Z,6.00
2023-03-12T05:38:46.618Z,7.70
2023-03-12T05:41:22.029Z,5.60
2023-03-12T05:43:50.289Z,5.60
2023-03-12T05:46:18.860Z,6.10
2023-03-12T05:48:47.863Z,4.90
2023-03-12T05:51:16.777Z,4.20
2023-03-12T05:53:45.188Z,5.60
2023-03-12T05:56:16.410Z,8.20
2023-03-12T05:58:45.126Z,5.10
2023-03-12T06:01:25.744Z,4.80
2023-03-12T06:06:25.864Z,7.30
2023-03-12T06:08:54.893Z,6.50
2023-03-12T06:11:23.033Z,7.50
2023-03-12T06:13:51.328Z,4.00
2023-03-12T06:16:23.178Z,3.40
2023-03-12T06:18:56.728Z,5.90
2023-03-12T06:21:27.418Z,7.60
2023-03-12T06:23:56.900Z,7.30
2023-03-12T06:26:31.908Z,5.10
2023-03-12T06:28:59.973Z,3.60
2023-03-12T06:31:28.490Z,4.00
2023-03-12T06:33:56.654Z,4.10
2023-03-12T06:36:25.665Z,4.90
2023-03-12T06:38:56.943Z,3.80
2023-03-12T06:41:25.695Z,4.50
2023-03-12T06:43:54.015Z,2.80
2023-03-12T06:46:22.296Z,7.00
2023-03-12T06:48:50.581Z,4.90
2023-03-12T06:51:18.974Z,1.50
2023-03-12T06:53:47.153Z,2.70
2023-03-12T06:56:16.010Z,3.20
2023-03-12T06:58:44.504Z,2.70
2023-03-12T07:01:14.009Z,7.70
2023-03-12T07:03:42.650Z,4.40
2023-03-12T07:06:16.330Z,2.80
2023-03-12T07:08:45.438Z,1.80
2023-03-12T07:11:13.986Z,2.20
2023-03-12T07:13:42.356Z,2.90
2023-03-12T07:16:11.177Z,4.10
2023-03-12T07:18:39.679Z,3.90
2023-03-12T07:21:07.829Z,3.00
2023-03-12T07:23:36.484Z,7.20
2023-03-12T07:26:06.331Z,2.10
2023-03-12T07:28:34.781Z,4.00
2023-03-12T07:31:04.617Z,2.70
2023-03-12T07:33:33.330Z,6.90
2023-03-12T07:36:01.776Z,4.20
2023-03-12T07:38:31.895Z,6.30
2023-03-12T07:41:00.829Z,5.10
2023-03-12T07:43:29.090Z,5.70
2023-03-12T07:45:57.511Z,8.50
2023-03-12T07:48:26.244Z,3.30
2023-03-12T07:50:54.773Z,10.50
2023-03-12T07:53:23.626Z,6.40
2023-03-12T07:55:52.474Z,3.90
2023-03-12T07:58:21.017Z,7.10
2023-03-12T08:00:49.481Z,6.90
2023-03-12T08:03:18.201Z,9.00
2023-03-12T08:05:56.722Z,8.10
2023-03-12T08:08:26.396Z,6.20
2023-03-12T08:10:55.429Z,6.60
2023-03-12T08:13:24.496Z,8.60
2023-03-12T08:15:54.094Z,7.20
2023-03-12T08:18:24.714Z,6.10
2023-03-12T08:20:54.806Z,6.70
2023-03-12T08:23:24.247Z,8.40
2023-03-12T08:25:53.160Z,6.10
2023-03-12T08:28:23.457Z,8.10
2023-03-12T08:30:54.893Z,4.80
2023-03-12T08:33:23.364Z,5.40
2023-03-12T08:35:52.580Z,4.30
2023-03-12T08:38:21.508Z,5.50
2023-03-12T08:40:57.431Z,6.40
2023-03-12T08:43:29.112Z,8.30
2023-03-12T08:46:00.417Z,11.30
2023-03-12T08:48:31.613Z,9.50
2023-03-12T08:51:04.327Z,8.10
2023-03-12T08:53:34.309Z,4.80
2023-03-12T08:56:03.720Z,8.50
2023-03-12T08:58:32.294Z,4.90
2023-03-12T09:01:00.753Z,4.10
2023-03-12T09:03:29.122Z,8.90
2023-03-12T09:06:14.876Z,6.50
2023-03-12T09:08:44.235Z,10.20
2023-03-12T09:11:14.744Z,8.10
2023-03-12T09:14:03.889Z,5.50
2023-03-12T09:16:31.295Z,4.90
2023-03-12T09:19:00.298Z,3.10
2023-03-12T09:21:28.934Z,3.90
2023-03-12T09:23:57.797Z,8.00
2023-03-12T09:26:25.941Z,8.70
2023-03-12T09:28:54.060Z,5.80
2023-03-12T09:31:22.414Z,7.10
2023-03-12T09:33:51.833Z,4.00
2023-03-12T09:36:20.010Z,6.00
2023-03-12T09:38:48.467Z,4.80
2023-03-12T09:41:23.656Z,4.50
2023-03-12T09:44:08.030Z,4.40
2023-03-12T09:46:36.111Z,4.20
2023-03-12T09:49:23.120Z,7.90
2023-03-12T09:51:55.649Z,5.30
2023-03-12T09:54:41.032Z,5.30
2023-03-12T09:57:17.938Z,5.40
2023-03-12T09:59:46.211Z,7.00
2023-03-12T10:02:53.055Z,11.30
2023-03-12T10:05:55.264Z,4.10
2023-03-12T10:08:42.138Z,4.60
2023-03-12T10:11:36.642Z,3.20
2023-03-12T10:14:24.427Z,3.50
2023-03-12T10:17:18.789Z,5.10
2023-03-12T10:20:09.938Z,5.40
2023-03-12T10:23:05.398Z,3.00
2023-03-12T10:25:37.011Z,6.00
2023-03-12T10:28:14.601Z,2.30
2023-03-12T10:30:50.419Z,5.00
2023-03-12T10:33:20.059Z,2.40
2023-03-12T10:35:49.214Z,4.70
2023-03-12T10:38:25.279Z,8.10
2023-03-12T10:40:53.414Z,5.30
2023-03-12T10:43:21.694Z,3.90
2023-03-12T10:46:07.302Z,7.30
2023-03-12T10:48:35.624Z,11.50
2023-03-12T10:51:13.921Z,4.90
2023-03-12T10:53:45.140Z,4.80
2023-03-12T10:56:20.749Z,3.50
2023-03-12T10:58:51.269Z,4.50
2023-03-12T11:01:31.920Z,3.30
2023-03-12T11:04:26.175Z,8.90
2023-03-12T11:07:21.307Z,5.70
2023-03-12T11:10:26.955Z,4.00
2023-03-12T11:13:20.127Z,4.70
2023-03-12T11:15:48.840Z,8.70
2023-03-12T11:18:24.100Z,6.10
2023-03-12T11:20:56.640Z,6.20
2023-03-12T11:23:30.511Z,7.70
2023-03-12T11:26:02.863Z,10.20
2023-03-12T11:28:40.783Z,8.90
2023-03-12T11:31:15.807Z,5.60
2023-03-12T11:33:44.112Z,7.40
2023-03-12T11:36:30.739Z,10.70
2023-03-12T11:39:22.111Z,13.60
2023-03-12T11:42:21.454Z,6.30
2023-03-12T11:44:55.648Z,6.70
2023-03-12T11:47:32.897Z,7.30
2023-03-12T11:50:13.327Z,7.70
2023-03-12T11:52:56.622Z,3.90
2023-03-12T11:56:00.471Z,5.00
2023-03-12T11:58:59.970Z,9.20
2023-03-12T12:01:56.705Z,5.40
2023-03-12T12:04:45.702Z,8.80
2023-03-12T12:07:19.457Z,6.40
2023-03-12T12:10:03.077Z,4.00
2023-03-12T12:12:50.261Z,4.00
2023-03-12T12:15:37.543Z,5.20
2023-03-12T12:18:43.586Z,6.10
2023-03-12T12:21:30.365Z,2.40
2023-03-12T12:24:22.980Z,2.60
2023-03-12T12:27:17.355Z,3.00
2023-03-12T12:29:58.511Z,5.60
2023-03-12T12:33:02.441Z,5.50
2023-03-12T12:35:38.143Z,1.80
2023-03-12T12:38:30.566Z,7.40
2023-03-12T12:41:16.995Z,3.00
2023-03-12T12:43:49.912Z,4.10
2023-03-12T12:46:26.548Z,5.40
2023-03-12T12:49:06.675Z,6.00
2023-03-12T12:51:40.502Z,4.20
2023-03-12T12:54:28.982Z,5.20
2023-03-12T12:57:24.284Z,3.30
2023-03-12T13:00:44.385Z,3.20
2023-03-12T13:03:17.768Z,5.00
2023-03-12T13:05:56.282Z,6.50
2023-03-12T13:08:50.785Z,5.10
2023-03-12T13:11:32.054Z,9.90
2023-03-12T13:14:04.033Z,5.20
2023-03-12T13:16:35.728Z,9.30
2023-03-12T13:19:24.191Z,9.90
2023-03-12T13:22:04.515Z,7.10
2023-03-12T13:24:56.024Z,7.80
2023-03-12T13:27:30.120Z,6.60
2023-03-12T13:29:58.706Z,6.80
2023-03-12T13:32:58.127Z,7.00
2023-03-12T13:35:26.590Z,4.00
2023-03-12T13:37:54.863Z,6.60
2023-03-12T13:40:29.421Z,9.30
2023-03-12T13:43:09.974Z,3.70
2023-03-12T13:45:47.922Z,4.20
2023-03-12T13:48:20.512Z,6.70
2023-03-12T13:53:36.095Z,4.90
2023-03-12T13:56:18.615Z,8.90
2023-03-12T13:59:03.872Z,4.30
2023-03-12T14:01:41.658Z,7.90
2023-03-12T14:04:20.251Z,4.20
2023-03-12T14:07:05.395Z,4.90
2023-03-12T14:09:45.557Z,4.60
2023-03-12T14:12:38.964Z,5.90
2023-03-12T14:15:23.603Z,8.40
2023-03-12T14:17:58.936Z,3.40
2023-03-12T14:20:27.793Z,2.70
2023-03-12T14:23:07.870Z,7.50
2023-03-12T14:25:45.581Z,5.40
2023-03-12T14:28:19.123Z,6.10
2023-03-12T14:31:07.378Z,3.40
2023-03-12T14:33:47.556Z,4.10
2023-03-12T14:36:20.536Z,5.40
2023-03-12T14:38:49.778Z,7.20
2023-03-12T14:41:31.280Z,5.30
2023-03-12T14:44:20.398Z,6.00
2023-03-12T14:47:03.205Z,9.50
2023-03-12T14:49:32.551Z,4.50
2023-03-12T14:52:00.773Z,5.90
2023-03-12T14:54:28.942Z,5.40
2023-03-12T14:56:57.352Z,7.60
2023-03-12T14:59:31.476Z,5.10
2023-03-12T15:02:04.372Z,6.00
2023-03-12T15:04:34.506Z,5.40
2023-03-12T15:07:06.625Z,4.50
2023-03-12T15:09:36.500Z,4.30
2023-03-12T15:12:08.205Z,6.00
2023-03-12T15:14:41.699Z,6.40
2023-03-12T15:17:17.424Z,5.90
2023-03-12T15:19:46.942Z,8.10
2023-03-12T15:22:18.267Z,6.80
2023-03-12T15:24:47.341Z,5.60
2023-03-12T15:27:25.204Z,3.80
2023-03-12T15:29:53.214Z,8.60
2023-03-12T15:32:25.152Z,7.20
2023-03-12T15:34:56.562Z,5.20
2023-03-12T15:37:38.705Z,8.20
2023-03-12T15:40:21.444Z,6.20
2023-03-12T15:42:50.563Z,5.60
2023-03-12T15:45:23.234Z,7.50
2023-03-12T15:47:53.795Z,9.20
2023-03-12T15:50:26.986Z,5.70
2023-03-12T15:53:04.297Z,5.80
2023-03-12T15:55:35.498Z,8.90
2023-03-12T15:58:24.025Z,16.00
2023-03-12T16:00:53.031Z,10.30
2023-03-12T16:03:22.371Z,11.60
2023-03-12T16:05:51.251Z,8.70
2023-03-12T16:08:21.105Z,8.60
2023-03-12T16:10:50.371Z,6.00
2023-03-12T16:13:26.642Z,10.10
2023-03-12T16:15:55.118Z,5.90
2023-03-12T16:18:23.919Z,10.90
2023-03-12T16:20:53.292Z,6.40
2023-03-12T16:23:21.487Z,6.30
2023-03-12T16:25:52.995Z,11.10
2023-03-12T16:28:22.563Z,13.20
2023-03-12T16:30:51.242Z,10.00
2023-03-12T16:33:22.146Z,7.40
2023-03-12T16:35:51.307Z,14.40
2023-03-12T16:38:19.395Z,7.50
2023-03-12T16:40:49.808Z,6.00
2023-03-12T16:43:21.469Z,12.10
2023-03-12T16:45:52.193Z,8.00
2023-03-12T16:48:24.202Z,11.20
2023-03-12T16:50:54.867Z,10.20
2023-03-12T16:53:23.457Z,9.20
2023-03-12T16:56:02.046Z,8.30
2023-03-12T16:58:30.358Z,6.40
2023-03-12T17:00:58.997Z,9.60
2023-03-12T17:03:37.365Z,7.10
2023-03-12T17:06:08.366Z,8.80
2023-03-12T17:08:36.698Z,12.50
2023-03-12T17:11:15.386Z,12.80
2023-03-12T17:13:45.802Z,8.70
2023-03-12T17:16:14.263Z,12.80
2023-03-12T17:18:42.619Z,11.60
2023-03-12T17:21:13.634Z,11.80
2023-03-12T17:23:42.568Z,12.90
2023-03-12T17:26:10.695Z,9.70
2023-03-12T17:28:39.652Z,9.50
2023-03-12T17:31:08.297Z,7.10
2023-03-12T17:33:38.350Z,9.10
2023-03-12T17:36:09.316Z,7.40
2023-03-12T17:38:38.031Z,10.00
2023-03-12T17:41:23.377Z,16.00
2023-03-12T17:43:55.278Z,15.70
2023-03-12T17:46:23.614Z,21.90
2023-03-12T17:48:52.525Z,36.80
2023-03-12T17:51:21.318Z,41.50
2023-03-12T17:53:50.126Z,39.50
2023-03-12T17:56:18.346Z,45.00
2023-03-12T17:58:46.986Z,48.60
2023-03-12T18:01:16.233Z,48.80
2023-03-12T18:03:44.575Z,48.20
2023-03-12T18:06:12.955Z,40.50
2023-03-12T18:08:41.597Z,45.60
2023-03-12T18:11:09.627Z,44.00
2023-03-12T18:13:39.856Z,84.20
2023-03-12T18:16:09.192Z,56.50
2023-03-12T18:18:37.528Z,175.70
2023-03-12T18:21:06.215Z,154.30
2023-03-12T18:23:34.587Z,166.50
2023-03-12T18:26:03.749Z,139.30
2023-03-12T18:28:31.855Z,115.80
2023-03-12T18:31:00.164Z,145.20
2023-03-12T18:33:28.451Z,123.20
2023-03-12T18:35:56.923Z,119.90
2023-03-12T18:38:25.355Z,95.80
2023-03-12T18:41:02.670Z,152.90
2023-03-12T18:43:32.062Z,102.10
2023-03-12T18:46:00.475Z,72.70
2023-03-12T18:48:28.672Z,54.70
2023-03-12T18:50:57.315Z,74.80
2023-03-12T18:53:25.387Z,95.90
2023-03-12T18:55:55.478Z,97.50
2023-03-12T18:58:26.108Z,111.00
2023-03-12T19:00:56.117Z,110.50
2023-03-12T19:03:25.767Z,95.30
2023-03-12T19:06:04.854Z,72.30
2023-03-12T19:08:34.977Z,57.60
2023-03-12T19:11:12.296Z,35.80
2023-03-12T19:13:41.467Z,44.70
2023-03-12T19:16:11.473Z,50.70
2023-03-12T19:18:39.855Z,39.10
2023-03-12T19:21:08.538Z,36.90
2023-03-12T19:23:36.742Z,42.10
2023-03-12T19:26:05.422Z,29.90
2023-03-12T19:28:34.547Z,28.80
2023-03-12T19:31:04.558Z,32.50
2023-03-12T19:33:33.502Z,34.00
2023-03-12T19:36:02.182Z,40.10
2023-03-12T19:38:30.777Z,40.70
2023-03-12T19:40:59.052Z,41.40
2023-03-12T19:43:27.521Z,49.90
2023-03-12T19:45:55.875Z,48.60
2023-03-12T19:48:25.491Z,44.40
2023-03-12T19:50:54.887Z,48.60
2023-03-12T19:53:24.960Z,50.90
2023-03-12T19:55:53.089Z,54.80
2023-03-12T19:58:21.728Z,54.60
2023-03-12T20:00:50.005Z,48.70
2023-03-12T20:03:18.396Z,56.00
2023-03-12T20:05:47.144Z,57.40
2023-03-12T20:08:15.211Z,68.50
2023-03-12T20:10:43.674Z,69.70
2023-03-12T20:13:13.503Z,61.10
2023-03-12T20:15:45.222Z,46.70
2023-03-12T20:18:14.629Z,47.00
2023-03-12T20:20:43.215Z,73.00
2023-03-12T20:23:11.288Z,79.90
2023-03-12T20:25:43.686Z,80.40
2023-03-12T20:28:11.832Z,103.30
2023-03-12T20:30:42.960Z,107.10
2023-03-12T20:33:11.058Z,64.20
2023-03-12T20:35:39.736Z,61.20
2023-03-12T20:38:08.229Z,67.30
2023-03-12T20:40:36.354Z,92.90
2023-03-12T20:43:05.244Z,74.20
2023-03-12T20:45:34.332Z,97.50
2023-03-12T20:48:02.627Z,105.50
2023-03-12T20:50:31.246Z,73.30
2023-03-12T20:52:59.852Z,56.00
2023-03-12T20:55:27.974Z,62.80
2023-03-12T20:57:56.190Z,65.30
2023-03-12T21:00:24.357Z,62.30
2023-03-12T21:02:52.489Z,67.50
2023-03-12T21:05:22.749Z,60.00
2023-03-12T21:10:22.084Z,62.00
2023-03-12T21:12:50.116Z,48.80
2023-03-12T21:15:18.348Z,53.10
2023-03-12T21:17:46.394Z,54.30
2023-03-12T21:20:14.753Z,54.30
2023-03-12T21:22:43.691Z,55.00
2023-03-12T21:25:12.744Z,63.80
2023-03-12T21:27:50.551Z,63.00
2023-03-12T21:30:19.607Z,56.40
2023-03-12T21:32:47.781Z,67.00
2023-03-12T21:35:15.980Z,65.70
2023-03-12T21:37:44.126Z,66.20
2023-03-12T21:40:13.164Z,64.60
2023-03-12T21:42:41.146Z,64.90
2023-03-12T21:45:10.133Z,60.90
2023-03-12T21:47:39.012Z,63.60
2023-03-12T21:50:10.073Z,54.10
2023-03-12T21:52:43.154Z,71.20
2023-03-12T21:55:11.614Z,59.10
2023-03-12T21:57:39.676Z,49.10
2023-03-12T22:00:12.963Z,48.90
2023-03-12T22:02:42.987Z,61.60
2023-03-12T22:05:11.685Z,78.50
2023-03-12T22:07:40.030Z,84.80
2023-03-12T22:10:11.946Z,77.20
2023-03-12T22:12:40.215Z,78.90
2023-03-12T22:15:09.347Z,84.80
2023-03-12T22:17:37.508Z,74.90
2023-03-12T22:20:08.057Z,75.60
2023-03-12T22:22:36.218Z,70.60
2023-03-12T22:25:04.596Z,61.60
2023-03-12T22:27:32.702Z,52.20
2023-03-12T22:30:00.969Z,43.10
2023-03-12T22:32:29.154Z,53.40
2023-03-12T22:34:57.240Z,47.80
2023-03-12T22:37:25.273Z,39.40
2023-03-12T22:39:53.361Z,42.70
2023-03-12T22:42:21.466Z,34.50
2023-03-12T22:44:49.549Z,39.50
2023-03-12T22:47:17.662Z,42.30
2023-03-12T22:49:46.828Z,36.90
2023-03-12T22:52:14.908Z,35.90
2023-03-12T22:54:42.957Z,45.50
2023-03-12T22:57:11.059Z,36.40
2023-03-12T22:59:39.120Z,32.20
2023-03-12T23:02:07.234Z,38.20
2023-03-12T23:04:35.824Z,37.70
2023-03-12T23:07:13.649Z,34.70
2023-03-12T23:09:44.023Z,41.80
2023-03-12T23:12:12.114Z,37.70
2023-03-12T23:14:40.237Z,40.50
2023-03-12T23:17:09.187Z,35.20
2023-03-12T23:19:37.470Z,42.60
2023-03-12T23:22:06.732Z,37.50
2023-03-12T23:24:35.237Z,43.80
2023-03-12T23:27:04.096Z,41.00
2023-03-12T23:29:33.732Z,48.70
2023-03-12T23:32:02.565Z,43.90
2023-03-12T23:34:30.761Z,43.70
2023-03-12T23:36:59.100Z,42.10
2023-03-12T23:39:29.919Z,41.70
2023-03-12T23:41:58.124Z,49.70
2023-03-12T23:44:26.216Z,43.10
2023-03-12T23:46:54.256Z,40.20
2023-03-12T23:49:22.332Z,45.40
2023-03-12T23:51:50.443Z,43.40
2023-03-12T23:54:18.749Z,44.00
2023-03-12T23:56:46.900Z,47.70
2023-03-12T23:59:14.953Z,40.40
